Terminal Aerodrome Forecast
Issued by NWS La Crosse, WI

Home | Current Version | Previous Version | Text Only | Print | Product List | Glossary On
Versions: 1 2 3 4 5 6 7 8 9 10 11 12 13 14 15 16 17 18 19 20 21 22 23 24 25 26 27 28 29 30 31 32 33 34
000
FTUS43 KARX 252000 AAC
TAFLSE
TAF AMD
KLSE 252000Z 2520/2618 18006KT 6SM -SHRA BKN060
     FM252100 22005KT P6SM VCSH SCT035
     FM260000 02005KT P6SM VCSH BKN035
     FM260600 12004KT 5SM BR VCSH BKN020
     FM261500 25008KT P6SM BKN020=

USA.gov is the U.S. government's official web portal to all federal, state and local government web resources and services.